Time;durP1;ratioP1;P1;durP2;ratioP2;P2;SDS_P1;SDS_P2;PMS_P1;PMS_P2;Temp;Humidity;BMP_temperature;BMP_pressure;BME280_temperature;BME280_humidity;BME280_pressure;Samples;Min_cycle;Max_cycle;Signal;HPM_P1;HPM_P2
2021/07/02 00:00:52;;;;;;;32.90;28.27;;;14.70;99.90;;;;;;5083739;28;20545;-72
2021/07/02 00:03:19;;;;;;;29.87;25.40;;;14.60;99.90;;;;;;5085427;28;20458;-72
2021/07/02 00:05:46;;;;;;;30.60;25.30;;;14.60;99.90;;;;;;5086574;28;20712;-72
2021/07/02 00:08:13;;;;;;;35.33;26.47;;;14.60;99.90;;;;;;5085946;28;20840;-72
2021/07/02 00:10:40;;;;;;;33.77;26.67;;;14.50;99.90;;;;;;5086391;28;20828;-72
2021/07/02 00:13:07;;;;;;;30.70;25.53;;;14.50;99.90;;;;;;5087131;28;20462;-71
2021/07/02 00:15:34;;;;;;;34.67;27.10;;;14.50;99.90;;;;;;5086563;28;20469;-74
2021/07/02 00:18:02;;;;;;;31.97;26.17;;;14.40;99.90;;;;;;5086087;28;20473;-73
2021/07/02 00:20:29;;;;;;;32.93;27.53;;;14.40;99.90;;;;;;5086126;28;20575;-71
2021/07/02 00:22:55;;;;;;;30.43;26.80;;;14.30;99.90;;;;;;5086211;28;20481;-72
2021/07/02 00:25:22;;;;;;;37.53;27.07;;;14.30;99.90;;;;;;5085149;28;20454;-72
2021/07/02 00:27:49;;;;;;;30.63;27.67;;;14.20;99.90;;;;;;5086380;28;20564;-72
2021/07/02 00:30:16;;;;;;;31.17;27.80;;;14.10;99.90;;;;;;5085966;28;20450;-73
2021/07/02 00:32:43;;;;;;;29.70;26.43;;;14.20;99.90;;;;;;5085649;28;20462;-71
2021/07/02 00:35:11;;;;;;;34.80;26.80;;;14.10;99.90;;;;;;5085668;28;20467;-72
2021/07/02 00:37:38;;;;;;;28.30;25.30;;;14.20;99.90;;;;;;5082875;28;20512;-72
2021/07/02 00:40:06;;;;;;;30.87;27.57;;;14.20;99.90;;;;;;5085795;28;20467;-72
2021/07/02 00:42:34;;;;;;;30.63;25.60;;;14.20;99.90;;;;;;5085259;28;20462;-71
2021/07/02 00:45:01;;;;;;;35.23;25.70;;;14.20;99.90;;;;;;5085751;28;20653;-73
2021/07/02 00:47:28;;;;;;;30.83;26.77;;;14.20;99.90;;;;;;5084839;28;21076;-71
2021/07/02 00:49:56;;;;;;;28.07;25.17;;;14.20;99.90;;;;;;5086105;28;20469;-72
2021/07/02 00:52:24;;;;;;;34.63;25.43;;;14.10;99.90;;;;;;5086289;28;21013;-72
2021/07/02 00:54:53;;;;;;;36.03;27.00;;;14.10;99.90;;;;;;5083294;28;20454;-72
2021/07/02 00:57:22;;;;;;;32.23;26.27;;;14.10;99.90;;;;;;5085924;28;20549;-71
2021/07/02 00:59:49;;;;;;;36.63;25.10;;;14.10;99.90;;;;;;5085830;28;20461;-72
2021/07/02 01:02:16;;;;;;;28.53;25.47;;;14.20;99.90;;;;;;5085146;28;20462;-71
2021/07/02 01:04:43;;;;;;;27.73;24.00;;;14.10;99.90;;;;;;5085619;28;20493;-72
2021/07/02 01:07:11;;;;;;;36.63;26.73;;;14.10;99.90;;;;;;5081390;28;20485;-74
2021/07/02 01:09:41;;;;;;;31.07;26.50;;;14.00;99.90;;;;;;5083907;28;20455;-73
2021/07/02 01:12:11;;;;;;;31.40;26.53;;;14.00;99.90;;;;;;5087284;28;20450;-71
2021/07/02 01:14:38;;;;;;;30.93;26.37;;;14.00;99.90;;;;;;5088737;28;20466;-72
2021/07/02 01:17:05;;;;;;;28.60;25.60;;;13.90;99.90;;;;;;5089243;28;20462;-71
2021/07/02 01:19:32;;;;;;;39.57;26.90;;;13.90;99.90;;;;;;5089795;28;20809;-72
2021/07/02 01:22:01;;;;;;;34.30;27.03;;;13.90;99.90;;;;;;5089923;28;20465;-74
2021/07/02 01:24:28;;;;;;;29.83;26.63;;;13.80;99.90;;;;;;5089545;28;20458;-72
2021/07/02 01:26:55;;;;;;;37.90;28.40;;;13.70;99.90;;;;;;5090119;28;20477;-72
2021/07/02 01:29:22;;;;;;;34.33;26.03;;;13.70;99.90;;;;;;5088220;28;20457;-72
2021/07/02 01:31:49;;;;;;;35.47;27.37;;;13.70;99.90;;;;;;5088970;28;20450;-72
2021/07/02 01:34:16;;;;;;;33.37;28.17;;;13.60;99.90;;;;;;5088906;28;20461;-69
2021/07/02 01:36:44;;;;;;;29.20;25.47;;;13.60;99.90;;;;;;5087028;28;20506;-72
2021/07/02 01:49:18;;;;;;;34.70;24.90;;;13.30;99.90;;;;;;5088024;28;20460;-74
2021/07/02 01:51:45;;;;;;;39.93;26.40;;;13.30;99.90;;;;;;5085822;28;20988;-73
2021/07/02 01:54:12;;;;;;;35.87;25.33;;;13.30;99.90;;;;;;5087776;28;20470;-72
2021/07/02 01:56:47;;;;;;;40.13;28.07;;;13.30;99.90;;;;;;5089609;28;20877;-72
2021/07/02 01:59:14;;;;;;;32.57;26.47;;;13.20;99.90;;;;;;5089280;28;21073;-71
2021/07/02 02:01:41;;;;;;;34.10;26.60;;;13.10;99.90;;;;;;5087782;28;20465;-73
2021/07/02 02:04:08;;;;;;;30.73;26.43;;;13.00;99.90;;;;;;5088322;28;20458;-74
2021/07/02 02:06:37;;;;;;;42.40;27.03;;;13.00;99.90;;;;;;5089050;28;20462;-71
2021/07/02 02:09:04;;;;;;;34.47;25.73;;;12.90;99.90;;;;;;5089936;28;20500;-73
2021/07/02 02:11:31;;;;;;;35.57;26.90;;;12.90;99.90;;;;;;5088681;28;20466;-71
2021/07/02 02:14:00;;;;;;;37.80;26.40;;;12.90;99.90;;;;;;5087885;28;20468;-71
2021/07/02 02:16:27;;;;;;;34.47;27.53;;;13.00;99.90;;;;;;5086467;28;20462;-73
2021/07/02 02:18:54;;;;;;;40.00;25.93;;;12.90;99.90;;;;;;5087928;28;20454;-71
2021/07/02 02:21:21;;;;;;;34.30;25.87;;;12.90;99.90;;;;;;5088417;28;22661;-73
2021/07/02 02:23:49;;;;;;;37.23;26.83;;;12.90;99.90;;;;;;5089095;28;20463;-71
2021/07/02 02:26:16;;;;;;;40.80;28.07;;;12.80;99.90;;;;;;5088393;28;20474;-71
2021/07/02 02:28:43;;;;;;;31.50;27.70;;;12.80;99.90;;;;;;5088070;28;20971;-71
2021/07/02 02:31:10;;;;;;;42.30;28.57;;;12.80;99.90;;;;;;5087282;28;20462;-72
2021/07/02 02:33:38;;;;;;;38.97;26.97;;;12.70;99.90;;;;;;5086158;28;20494;-71
2021/07/02 02:36:05;;;;;;;33.50;28.43;;;12.70;99.90;;;;;;5086204;28;20514;-72
2021/07/02 02:38:32;;;;;;;37.80;29.20;;;12.60;99.90;;;;;;5087711;28;20464;-75
2021/07/02 02:41:01;;;;;;;37.43;27.47;;;12.60;99.90;;;;;;5087893;28;20990;-72
2021/07/02 02:43:28;;;;;;;33.37;27.90;;;12.50;99.90;;;;;;5086769;28;21151;-71
2021/07/02 02:45:54;;;;;;;33.57;26.93;;;12.50;99.90;;;;;;5087555;28;20464;-68
2021/07/02 02:48:22;;;;;;;30.70;27.23;;;12.40;99.90;;;;;;5088106;28;20486;-71
2021/07/02 02:50:48;;;;;;;38.10;28.50;;;12.30;99.90;;;;;;5087781;28;20458;-70
2021/07/02 02:53:15;;;;;;;36.20;29.40;;;12.20;99.90;;;;;;5088263;28;20477;-69
2021/07/02 02:55:42;;;;;;;36.40;27.93;;;12.10;99.90;;;;;;5086235;28;20501;-69
2021/07/02 02:58:10;;;;;;;40.83;27.90;;;12.00;99.90;;;;;;5085543;28;20453;-70
2021/07/02 03:00:38;;;;;;;35.60;27.93;;;11.90;99.90;;;;;;5079419;28;20469;-69
2021/07/02 03:03:05;;;;;;;33.10;28.67;;;11.70;99.90;;;;;;5087061;28;20821;-69
2021/07/02 03:05:32;;;;;;;43.43;29.53;;;11.60;99.90;;;;;;5087862;28;20450;-69
2021/07/02 03:08:01;;;;;;;41.90;30.00;;;11.50;99.90;;;;;;5088459;28;20904;-69
2021/07/02 03:10:29;;;;;;;37.50;29.00;;;11.60;99.90;;;;;;5087863;28;20464;-71
2021/07/02 03:12:57;;;;;;;38.57;29.90;;;11.60;99.90;;;;;;5086765;28;20461;-68
2021/07/02 03:15:26;;;;;;;43.17;28.87;;;11.70;99.90;;;;;;5086910;28;20549;-68
2021/07/02 03:17:53;;;;;;;34.47;29.30;;;11.80;99.90;;;;;;5086531;28;20546;-69
2021/07/02 03:20:20;;;;;;;36.03;29.20;;;11.90;99.90;;;;;;5085750;28;20471;-71
2021/07/02 03:22:47;;;;;;;41.40;28.27;;;12.10;99.90;;;;;;5086739;28;20887;-69
2021/07/02 03:25:14;;;;;;;35.33;25.83;;;12.20;99.90;;;;;;5086701;28;20473;-69
2021/07/02 03:27:41;;;;;;;33.07;26.13;;;12.30;99.90;;;;;;5086647;28;20589;-69
2021/07/02 03:30:10;;;;;;;44.93;27.03;;;12.30;99.90;;;;;;5086484;28;21019;-69
2021/07/02 03:32:39;;;;;;;35.20;26.77;;;12.40;99.90;;;;;;5088562;28;20472;-72
2021/07/02 03:35:08;;;;;;;33.53;25.63;;;12.40;99.90;;;;;;5085975;28;20990;-72
2021/07/02 03:37:35;;;;;;;34.37;25.40;;;12.50;99.90;;;;;;5085500;28;20489;-69
2021/07/02 03:40:02;;;;;;;28.67;24.30;;;12.50;99.90;;;;;;5084746;28;20468;-70
2021/07/02 03:42:29;;;;;;;34.70;25.30;;;12.40;99.90;;;;;;5081864;28;20489;-70
2021/07/02 03:44:57;;;;;;;31.20;24.53;;;12.30;99.90;;;;;;5087952;28;20470;-69
2021/07/02 03:47:24;;;;;;;30.93;24.90;;;12.20;99.90;;;;;;5087254;28;20463;-69
2021/07/02 03:49:53;;;;;;;36.47;26.93;;;12.20;99.90;;;;;;5085944;28;20462;-69
2021/07/02 03:52:19;;;;;;;32.17;26.40;;;12.10;99.90;;;;;;5086006;28;20950;-69
2021/07/02 03:54:47;;;;;;;35.53;26.63;;;12.10;99.90;;;;;;5084535;28;20455;-69
2021/07/02 03:57:18;;;;;;;29.33;25.60;;;12.00;99.90;;;;;;5086458;28;20461;-73
2021/07/02 03:59:46;;;;;;;33.30;25.77;;;11.90;99.90;;;;;;5084657;28;20507;-69
2021/07/02 04:02:14;;;;;;;29.73;25.50;;;11.90;99.90;;;;;;5084142;28;20813;-70
2021/07/02 04:04:42;;;;;;;30.87;26.50;;;11.80;99.90;;;;;;5085896;28;20472;-72
2021/07/02 04:07:11;;;;;;;32.87;26.97;;;11.80;99.90;;;;;;5085586;28;20460;-70
2021/07/02 04:09:39;;;;;;;36.20;28.30;;;11.80;99.90;;;;;;5083153;28;20507;-69
2021/07/02 04:12:07;;;;;;;29.30;26.23;;;11.80;99.90;;;;;;5084345;28;20972;-69
2021/07/02 04:14:35;;;;;;;29.63;25.57;;;11.70;99.90;;;;;;5086313;28;20453;-70
2021/07/02 04:17:02;;;;;;;37.07;25.10;;;11.70;99.90;;;;;;5084334;28;20465;-69
2021/07/02 04:19:29;;;;;;;30.03;26.83;;;11.70;99.90;;;;;;5086549;28;20532;-70
2021/07/02 04:21:56;;;;;;;32.50;25.93;;;11.80;99.90;;;;;;5085940;28;20457;-69
2021/07/02 04:24:26;;;;;;;41.13;28.33;;;11.90;99.90;;;;;;5085757;28;20996;-71
2021/07/02 04:26:54;;;;;;;30.03;25.63;;;12.00;99.90;;;;;;5085919;28;20521;-72
2021/07/02 04:29:21;;;;;;;31.63;27.20;;;12.10;99.90;;;;;;5085213;28;20493;-72
2021/07/02 04:31:48;;;;;;;31.80;27.20;;;12.20;99.90;;;;;;5087074;28;20468;-73
2021/07/02 04:34:15;;;;;;;36.77;29.47;;;12.30;99.90;;;;;;5085822;28;20458;-72
2021/07/02 04:36:43;;;;;;;31.37;28.10;;;12.40;99.90;;;;;;5085212;28;20481;-72
2021/07/02 04:39:10;;;;;;;40.17;29.00;;;12.50;99.90;;;;;;5085810;28;20473;-72
2021/07/02 04:41:38;;;;;;;36.30;27.57;;;12.60;99.90;;;;;;5085576;28;21045;-73
2021/07/02 04:44:05;;;;;;;33.53;29.00;;;12.80;99.90;;;;;;5085223;28;20458;-72
2021/07/02 04:46:32;;;;;;;36.07;27.37;;;13.00;99.90;;;;;;5086870;28;20549;-71
2021/07/02 04:48:59;;;;;;;37.83;27.20;;;13.10;99.90;;;;;;5089463;28;20477;-71
2021/07/02 04:51:26;;;;;;;33.77;27.87;;;13.20;99.90;;;;;;5089694;28;20469;-73
2021/07/02 04:53:53;;;;;;;34.83;27.30;;;13.30;99.90;;;;;;5089077;28;20446;-72
2021/07/02 04:56:19;;;;;;;38.37;26.37;;;13.40;99.90;;;;;;5089514;28;20462;-71
2021/07/02 04:58:54;;;;;;;47.33;27.50;;;13.60;99.90;;;;;;5090661;28;20874;-71
2021/07/02 05:01:21;;;;;;;38.00;28.23;;;13.80;99.90;;;;;;5086365;28;20469;-69
2021/07/02 05:03:49;;;;;;;28.70;25.60;;;13.90;99.90;;;;;;5085973;28;20465;-69
2021/07/02 05:06:16;;;;;;;37.63;26.87;;;14.10;99.90;;;;;;5088710;28;20470;-69
2021/07/02 05:08:44;;;;;;;32.07;27.20;;;14.40;99.90;;;;;;5089505;28;20538;-72
2021/07/02 05:11:12;;;;;;;29.60;26.47;;;14.60;99.90;;;;;;5088713;28;20453;-69
2021/07/02 05:13:39;;;;;;;28.10;25.10;;;14.50;99.90;;;;;;5085828;28;20454;-69
2021/07/02 05:16:08;;;;;;;28.93;26.20;;;14.60;99.90;;;;;;5084546;28;20455;-71
2021/07/02 05:18:35;;;;;;;33.43;27.03;;;14.80;99.90;;;;;;5081299;28;20468;-68
2021/07/02 05:21:02;;;;;;;30.53;25.10;;;14.90;99.90;;;;;;5081685;28;20814;-69
2021/07/02 05:23:29;;;;;;;30.53;27.30;;;15.10;99.90;;;;;;5082865;28;20868;-69
2021/07/02 05:25:55;;;;;;;29.40;25.10;;;15.20;99.90;;;;;;5083372;28;21189;-69
2021/07/02 05:28:22;;;;;;;29.80;26.57;;;15.30;99.90;;;;;;5082861;28;20500;-69
2021/07/02 05:30:49;;;;;;;27.23;24.33;;;15.50;99.90;;;;;;5082841;28;20469;-72
2021/07/02 05:33:18;;;;;;;28.77;25.67;;;15.50;99.90;;;;;;5081460;28;20564;-69
2021/07/02 05:35:45;;;;;;;37.13;26.77;;;15.60;99.90;;;;;;5079682;28;20767;-72
2021/07/02 05:38:12;;;;;;;45.30;25.50;;;15.60;99.90;;;;;;5080633;28;20462;-69
2021/07/02 05:40:39;;;;;;;29.13;26.20;;;15.90;99.90;;;;;;5080953;28;20477;-71
2021/07/02 05:43:06;;;;;;;28.53;26.00;;;16.10;99.90;;;;;;5083172;28;20466;-71
2021/07/02 05:45:33;;;;;;;28.93;26.07;;;16.20;99.90;;;;;;5082472;28;20463;-69
2021/07/02 05:48:01;;;;;;;27.80;25.30;;;16.20;99.90;;;;;;5084080;28;20467;-69
2021/07/02 05:50:30;;;;;;;34.37;25.57;;;16.20;99.90;;;;;;5083617;28;20843;-69
2021/07/02 05:52:57;;;;;;;26.70;24.20;;;16.30;99.90;;;;;;5081834;28;20470;-68
2021/07/02 05:55:25;;;;;;;26.87;24.37;;;16.30;99.90;;;;;;5080843;28;20862;-69
2021/07/02 05:57:52;;;;;;;26.93;24.20;;;16.30;99.90;;;;;;5085447;28;20458;-69
2021/07/02 06:00:20;;;;;;;30.40;24.83;;;16.20;99.90;;;;;;5084635;28;20462;-70
2021/07/02 06:02:47;;;;;;;28.97;25.87;;;16.10;99.90;;;;;;5079473;28;20466;-72
2021/07/02 06:05:14;;;;;;;27.80;25.27;;;16.20;99.90;;;;;;5085024;28;20556;-69
2021/07/02 06:07:47;;;;;;;28.50;25.60;;;16.30;99.90;;;;;;5080398;28;20975;-70
2021/07/02 06:10:16;;;;;;;28.13;25.30;;;16.20;99.90;;;;;;5084403;28;20647;-70
2021/07/02 06:12:44;;;;;;;28.30;24.20;;;16.40;99.90;;;;;;5083305;28;20898;-70
2021/07/02 06:15:13;;;;;;;26.43;23.70;;;16.60;99.90;;;;;;5081100;28;20470;-70
2021/07/02 06:17:42;;;;;;;32.33;23.60;;;16.60;99.90;;;;;;5072031;28;20481;-70
2021/07/02 06:20:11;;;;;;;31.40;23.63;;;16.40;99.90;;;;;;5079636;28;20835;-74
2021/07/02 06:22:39;;;;;;;25.87;23.37;;;16.60;99.90;;;;;;5083981;28;20550;-70
2021/07/02 06:25:11;;;;;;;26.87;24.10;;;16.70;99.90;;;;;;5083473;28;20468;-70
2021/07/02 06:27:38;;;;;;;26.40;23.17;;;16.90;99.90;;;;;;5083782;28;20569;-71
2021/07/02 06:30:06;;;;;;;24.57;22.23;;;17.00;99.90;;;;;;5079885;28;20496;-71
2021/07/02 06:32:34;;;;;;;24.57;22.07;;;17.10;99.90;;;;;;5080505;28;20469;-72
2021/07/02 06:35:01;;;;;;;28.20;23.30;;;17.10;99.90;;;;;;5084547;28;20484;-70
2021/07/02 06:37:28;;;;;;;24.43;22.20;;;17.10;99.90;;;;;;5081509;28;20492;-70
2021/07/02 06:39:55;;;;;;;26.27;23.73;;;17.20;99.90;;;;;;5084711;28;20462;-69
2021/07/02 06:42:23;;;;;;;27.47;23.63;;;17.30;99.90;;;;;;5084090;28;20466;-71
2021/07/02 06:44:50;;;;;;;23.63;21.20;;;17.30;99.90;;;;;;5084510;28;20468;-71
2021/07/02 06:47:17;;;;;;;25.70;23.30;;;17.40;99.90;;;;;;5084797;28;20504;-71
2021/07/02 06:49:43;;;;;;;27.10;22.47;;;17.60;99.90;;;;;;5080509;28;20493;-71
2021/07/02 06:52:10;;;;;;;25.50;23.07;;;17.80;99.90;;;;;;5082606;28;20474;-73
2021/07/02 06:54:37;;;;;;;24.80;22.60;;;18.10;99.90;;;;;;5078753;28;20934;-71
2021/07/02 06:57:07;;;;;;;23.83;21.73;;;18.20;99.90;;;;;;5080620;28;20469;-71
2021/07/02 06:59:38;;;;;;;24.43;22.10;;;18.40;99.90;;;;;;5081114;28;20466;-71
2021/07/02 07:02:09;;;;;;;23.97;21.77;;;18.50;99.90;;;;;;5082594;28;20535;-71
2021/07/02 07:04:36;;;;;;;25.83;23.23;;;18.80;99.90;;;;;;5084160;28;20873;-70
2021/07/02 07:07:03;;;;;;;29.27;22.20;;;19.10;99.90;;;;;;5083458;28;20461;-73
2021/07/02 07:09:31;;;;;;;25.63;23.23;;;19.20;99.90;;;;;;5080603;28;20493;-73
2021/07/02 07:11:58;;;;;;;24.17;22.10;;;19.20;99.90;;;;;;5081978;28;21144;-70
2021/07/02 07:14:26;;;;;;;23.87;21.37;;;19.10;99.90;;;;;;5082164;28;20528;-73
2021/07/02 07:16:54;;;;;;;25.00;22.70;;;19.30;99.90;;;;;;5074554;28;20466;-71
2021/07/02 07:19:24;;;;;;;25.70;23.17;;;19.20;99.90;;;;;;5078459;28;20462;-73
2021/07/02 07:21:51;;;;;;;24.10;21.77;;;19.30;99.90;;;;;;5084304;28;20469;-70
2021/07/02 07:24:18;;;;;;;25.30;22.20;;;19.30;99.90;;;;;;5083213;28;20462;-71
2021/07/02 07:26:45;;;;;;;24.07;21.87;;;19.30;99.90;;;;;;5082615;28;20496;-71
2021/07/02 07:29:12;;;;;;;24.90;22.63;;;19.20;99.90;;;;;;5075043;28;21041;-71
2021/07/02 07:31:39;;;;;;;25.10;22.37;;;19.10;99.90;;;;;;5081439;28;20987;-75
2021/07/02 07:34:07;;;;;;;50.27;24.03;;;19.30;99.90;;;;;;5080342;28;20520;-71
2021/07/02 07:36:36;;;;;;;23.67;21.60;;;19.40;99.90;;;;;;5078783;28;20916;-70
2021/07/02 07:39:04;;;;;;;24.87;22.83;;;19.80;99.90;;;;;;5079224;28;20847;-72
2021/07/02 07:41:31;;;;;;;24.87;22.63;;;20.00;99.90;;;;;;5075512;28;20722;-71
2021/07/02 07:43:58;;;;;;;24.03;21.90;;;20.00;99.90;;;;;;5081027;28;20469;-71
2021/07/02 07:46:28;;;;;;;23.87;21.77;;;20.20;99.90;;;;;;5076939;28;20832;-71
2021/07/02 07:48:55;;;;;;;23.87;21.77;;;20.30;99.90;;;;;;5081577;28;20486;-71
2021/07/02 07:51:35;;;;;;;26.23;22.10;;;20.10;99.90;;;;;;5079465;28;20467;-72
2021/07/02 07:54:02;;;;;;;23.00;21.00;;;20.10;99.90;;;;;;5082908;28;21058;-70
2021/07/02 07:56:30;;;;;;;25.60;22.90;;;20.00;99.90;;;;;;5080936;28;20465;-73
2021/07/02 07:58:57;;;;;;;25.90;23.50;;;19.50;99.90;;;;;;5080994;28;20489;-71
2021/07/02 08:01:25;;;;;;;22.50;20.90;;;19.10;99.90;;;;;;5082531;28;20592;-71
2021/07/02 08:03:52;;;;;;;22.87;21.23;;;19.60;99.90;;;;;;5079720;28;20497;-73
2021/07/02 08:06:19;;;;;;;24.13;22.17;;;20.40;99.90;;;;;;5083773;28;21015;-69
2021/07/02 08:08:47;;;;;;;24.83;22.80;;;20.90;99.90;;;;;;5083110;28;20458;-70
2021/07/02 08:11:14;;;;;;;23.37;21.60;;;21.00;99.90;;;;;;5082269;28;20934;-71
2021/07/02 08:13:41;;;;;;;22.73;20.73;;;21.20;99.90;;;;;;5081929;28;20484;-71
2021/07/02 08:16:08;;;;;;;23.60;21.50;;;21.40;99.90;;;;;;5080149;28;20465;-72
2021/07/02 08:18:34;;;;;;;22.20;20.60;;;21.00;99.90;;;;;;5081022;28;20463;-70
2021/07/02 08:21:02;;;;;;;25.27;22.73;;;21.40;99.90;;;;;;5080880;28;20470;-73
2021/07/02 08:23:29;;;;;;;23.17;21.37;;;20.90;99.90;;;;;;5081601;28;20906;-70
2021/07/02 08:25:57;;;;;;;22.80;21.00;;;21.10;99.90;;;;;;5081904;28;20489;-70
2021/07/02 08:31:08;;;;;;;24.13;21.87;;;21.50;99.90;;;;;;5084057;28;20472;-69
2021/07/02 08:33:35;;;;;;;22.67;20.87;;;21.60;99.90;;;;;;5080579;28;20484;-70
2021/07/02 08:36:01;;;;;;;23.00;20.77;;;21.90;99.90;;;;;;5077826;28;20490;-69
2021/07/02 08:38:28;;;;;;;22.70;20.87;;;22.10;99.90;;;;;;5082254;28;20462;-69
2021/07/02 08:40:57;;;;;;;23.50;21.40;;;21.80;99.90;;;;;;5080401;28;20458;-69
2021/07/02 08:43:24;;;;;;;22.47;20.67;;;22.10;99.90;;;;;;5082654;28;20504;-69
2021/07/02 08:45:52;;;;;;;22.00;20.30;;;22.00;99.90;;;;;;5081818;28;20485;-69
2021/07/02 08:48:20;;;;;;;21.23;19.73;;;21.60;99.90;;;;;;5082461;28;20469;-70
2021/07/02 08:50:48;;;;;;;23.23;21.03;;;21.50;99.90;;;;;;5082441;28;20568;-69
2021/07/02 08:53:15;;;;;;;21.93;20.40;;;21.50;99.90;;;;;;5082384;28;20544;-69
2021/07/02 08:55:42;;;;;;;21.67;19.93;;;21.80;99.90;;;;;;5074506;28;21030;-71
2021/07/02 08:58:14;;;;;;;22.00;20.33;;;22.60;99.90;;;;;;5079018;28;20457;-70
2021/07/02 09:00:41;;;;;;;22.23;20.30;;;23.50;99.90;;;;;;5078553;28;20827;-70
2021/07/02 09:03:29;;;;;;;20.70;19.20;;;24.40;99.90;;;;;;5079553;28;20540;-70
2021/07/02 09:05:56;;;;;;;21.63;20.03;;;23.90;99.90;;;;;;5078244;28;20462;-70
2021/07/02 09:08:24;;;;;;;22.23;20.30;;;24.00;99.90;;;;;;5078651;28;20485;-70
2021/07/02 09:10:51;;;;;;;21.20;19.50;;;24.10;99.90;;;;;;5079246;28;20521;-69
2021/07/02 09:13:19;;;;;;;25.17;23.13;;;24.20;99.90;;;;;;5078501;28;20466;-70
2021/07/02 09:15:47;;;;;;;24.50;22.57;;;24.20;99.90;;;;;;5081485;28;20462;-70
2021/07/02 09:18:16;;;;;;;25.20;22.97;;;24.50;99.90;;;;;;5077019;28;20478;-69
2021/07/02 09:20:44;;;;;;;24.03;22.03;;;24.10;99.90;;;;;;5081609;28;20800;-71
2021/07/02 09:23:13;;;;;;;25.27;23.17;;;23.80;99.90;;;;;;5079975;28;20465;-70
2021/07/02 09:25:45;;;;;;;24.50;22.20;;;23.80;99.90;;;;;;5079751;28;20465;-74
2021/07/02 09:28:14;;;;;;;24.17;22.10;;;24.20;99.90;;;;;;5080263;28;20454;-71
2021/07/02 09:30:44;;;;;;;25.80;23.40;;;24.30;99.90;;;;;;5078872;28;20489;-71
2021/07/02 09:33:13;;;;;;;25.93;23.73;;;24.70;99.90;;;;;;5081245;28;20688;-73
2021/07/02 09:35:45;;;;;;;28.33;23.20;;;25.00;99.90;;;;;;5084082;28;20469;-69
2021/07/02 09:38:14;;;;;;;27.83;25.10;;;25.10;99.90;;;;;;5084584;28;20816;-71
2021/07/02 09:40:41;;;;;;;28.10;25.37;;;25.10;99.90;;;;;;5084789;28;20519;-71
2021/07/02 09:43:12;;;;;;;29.10;26.03;;;25.00;99.90;;;;;;5085154;28;20485;-72
2021/07/02 09:45:49;;;;;;;27.07;24.93;;;24.30;99.90;;;;;;5084756;28;20922;-75
2021/07/02 09:48:18;;;;;;;27.30;25.20;;;24.30;99.90;;;;;;5086744;28;20842;-71
2021/07/02 09:50:47;;;;;;;27.00;24.50;;;24.90;99.90;;;;;;5083687;28;20501;-71
2021/07/02 09:53:17;;;;;;;26.83;24.70;;;25.60;99.90;;;;;;5085061;28;20458;-71
2021/07/02 09:55:45;;;;;;;27.43;25.20;;;26.50;99.90;;;;;;5083493;28;20465;-70
2021/07/02 09:58:15;;;;;;;28.43;25.70;;;26.00;99.90;;;;;;5084711;28;20458;-71
2021/07/02 10:00:44;;;;;;;27.60;25.23;;;25.30;99.90;;;;;;5085016;28;20465;-74
2021/07/02 10:03:14;;;;;;;27.83;25.40;;;24.80;99.90;;;;;;5080453;28;20553;-72
2021/07/02 10:05:50;;;;;;;28.00;25.30;;;24.40;99.90;;;;;;5083888;28;20465;-72
2021/07/02 10:08:17;;;;;;;27.67;25.43;;;24.10;99.90;;;;;;5080799;28;20462;-71
2021/07/02 10:10:44;;;;;;;25.90;23.47;;;24.10;99.90;;;;;;5082628;28;20690;-74
2021/07/02 10:13:12;;;;;;;28.47;25.80;;;24.40;99.90;;;;;;5085018;28;20672;-71
2021/07/02 10:15:41;;;;;;;27.27;25.00;;;24.70;99.90;;;;;;5081000;28;20465;-71
2021/07/02 10:18:15;;;;;;;27.10;24.80;;;24.70;99.90;;;;;;5078931;28;20508;-71
2021/07/02 10:20:43;;;;;;;26.47;24.30;;;24.80;99.90;;;;;;5083913;28;20469;-71
2021/07/02 10:23:11;;;;;;;26.90;24.20;;;24.50;99.90;;;;;;5082200;28;20480;-72
2021/07/02 10:25:41;;;;;;;26.07;23.83;;;24.20;99.90;;;;;;5079508;28;20508;-71
2021/07/02 10:28:10;;;;;;;26.07;23.87;;;24.10;99.90;;;;;;5085322;28;20544;-73
2021/07/02 10:30:39;;;;;;;25.30;23.20;;;23.80;99.90;;;;;;5085631;28;20728;-73
2021/07/02 10:33:07;;;;;;;25.60;23.47;;;24.00;99.90;;;;;;5085176;28;20519;-71
2021/07/02 10:35:36;;;;;;;25.10;22.80;;;24.80;99.90;;;;;;5083816;28;20466;-70
2021/07/02 10:38:04;;;;;;;26.67;23.00;;;25.80;99.90;;;;;;5084690;28;20664;-70
2021/07/02 10:40:37;;;;;;;26.10;23.97;;;26.20;99.90;;;;;;5078290;28;20497;-70
2021/07/02 10:43:19;;;;;;;25.10;23.20;;;26.10;99.90;;;;;;5084776;28;20466;-73
2021/07/02 10:46:12;;;;;;;23.90;21.80;;;25.50;99.90;;;;;;5085085;28;20527;-72
2021/07/02 10:48:57;;;;;;;24.33;22.33;;;25.00;99.90;;;;;;5085419;28;20743;-70
2021/07/02 10:51:49;;;;;;;24.30;22.40;;;25.40;99.90;;;;;;5080486;28;20497;-73
2021/07/02 10:54:32;;;;;;;27.07;24.30;;;25.40;99.90;;;;;;5081835;28;20527;-70
2021/07/02 10:57:05;;;;;;;23.30;21.20;;;25.80;99.90;;;;;;5083312;28;20462;-72
2021/07/02 11:00:01;;;;;;;24.80;22.70;;;25.80;99.90;;;;;;5080787;28;20508;-71
2021/07/02 11:02:28;;;;;;;22.97;21.30;;;25.70;99.90;;;;;;5081980;28;20956;-70
2021/07/02 11:04:56;;;;;;;24.30;22.20;;;25.90;99.90;;;;;;5079187;28;20469;-71
2021/07/02 11:07:42;;;;;;;23.67;21.77;;;26.20;99.90;;;;;;5078355;28;20466;-71
2021/07/02 11:10:11;;;;;;;24.63;22.63;;;25.70;99.90;;;;;;5081312;28;20497;-72
2021/07/02 11:13:02;;;;;;;25.43;23.43;;;25.40;99.90;;;;;;5084025;28;20889;-70
2021/07/02 11:15:31;;;;;;;22.87;20.77;;;25.00;99.90;;;;;;5079113;28;20878;-70
2021/07/02 11:18:14;;;;;;;23.20;21.50;;;25.10;99.90;;;;;;5080932;28;20484;-72
2021/07/02 11:20:42;;;;;;;24.30;22.20;;;25.00;99.90;;;;;;5080118;28;20470;-72
2021/07/02 11:23:19;;;;;;;23.33;21.53;;;25.30;99.90;;;;;;5082515;28;20466;-70
2021/07/02 11:25:50;;;;;;;24.40;22.33;;;25.10;99.90;;;;;;5079606;28;20895;-70
2021/07/02 11:28:35;;;;;;;24.07;22.13;;;24.70;99.90;;;;;;5084341;28;20817;-72
2021/07/02 11:31:04;;;;;;;26.43;23.93;;;24.30;99.90;;;;;;5083490;28;20487;-70
2021/07/02 11:33:31;;;;;;;24.63;22.50;;;23.40;99.90;;;;;;5083200;28;20496;-72
2021/07/02 11:36:10;;;;;;;26.00;23.53;;;23.00;99.90;;;;;;5082750;28;20502;-71
2021/07/02 11:38:56;;;;;;;24.30;22.27;;;23.30;99.90;;;;;;5083284;28;20840;-71
2021/07/02 11:41:25;;;;;;;24.53;22.50;;;23.10;99.90;;;;;;5083629;28;20461;-72
2021/07/02 11:43:53;;;;;;;23.90;21.90;;;23.10;99.90;;;;;;5083725;28;20815;-69
2021/07/02 11:46:21;;;;;;;26.10;23.47;;;22.60;99.90;;;;;;5076254;28;20581;-71
2021/07/02 11:48:49;;;;;;;24.83;22.93;;;22.30;99.90;;;;;;5075560;28;20469;-71
2021/07/02 11:51:19;;;;;;;25.33;22.83;;;22.00;99.90;;;;;;5079377;28;20489;-72
2021/07/02 11:53:49;;;;;;;25.77;23.37;;;22.30;99.90;;;;;;5080294;28;20512;-69
2021/07/02 11:56:18;;;;;;;24.60;22.50;;;22.50;99.90;;;;;;5079126;28;20462;-69
2021/07/02 11:58:46;;;;;;;24.33;22.33;;;22.80;99.90;;;;;;5074611;28;20458;-69
2021/07/02 12:01:15;;;;;;;24.40;22.37;;;22.70;99.90;;;;;;5075655;28;20571;-69
2021/07/02 12:03:50;;;;;;;24.10;22.03;;;22.80;99.90;;;;;;5082577;28;20462;-71
2021/07/02 12:06:25;;;;;;;23.70;21.60;;;23.10;99.90;;;;;;5080255;28;20462;-69
2021/07/02 12:08:57;;;;;;;24.37;22.17;;;23.00;99.90;;;;;;5080799;28;20464;-69
2021/07/02 12:11:30;;;;;;;23.97;22.10;;;22.70;99.90;;;;;;5081328;28;20522;-69
2021/07/02 12:13:57;;;;;;;24.90;22.60;;;22.90;99.90;;;;;;5081704;28;20491;-71
2021/07/02 12:16:30;;;;;;;24.97;22.30;;;22.70;99.90;;;;;;5082256;28;20464;-72
2021/07/02 12:18:57;;;;;;;24.10;22.13;;;22.70;99.90;;;;;;5073641;28;20492;-72
2021/07/02 12:21:29;;;;;;;24.13;21.87;;;22.80;99.90;;;;;;5079565;28;20549;-70
2021/07/02 12:24:01;;;;;;;23.40;21.20;;;22.90;99.90;;;;;;5082955;28;20466;-71
2021/07/02 12:26:30;;;;;;;24.43;22.27;;;22.90;99.90;;;;;;5082837;28;20504;-69
2021/07/02 12:29:16;;;;;;;24.27;22.07;;;23.00;99.90;;;;;;5077639;28;20540;-70
2021/07/02 12:31:45;;;;;;;24.80;22.77;;;23.40;99.90;;;;;;5080579;28;20496;-69
2021/07/02 12:34:15;;;;;;;23.20;21.20;;;23.50;99.90;;;;;;5077426;28;20462;-70
2021/07/02 12:36:54;;;;;;;23.80;21.60;;;23.80;99.90;;;;;;5077492;28;20521;-70
2021/07/02 12:39:24;;;;;;;23.90;21.60;;;24.40;99.90;;;;;;5077418;28;20459;-70
2021/07/02 12:41:52;;;;;;;23.57;21.60;;;24.50;99.90;;;;;;5078133;28;20461;-72
2021/07/02 12:44:21;;;;;;;24.67;22.77;;;25.10;99.90;;;;;;5078830;28;20466;-70
2021/07/02 12:46:48;;;;;;;22.07;20.47;;;25.10;99.90;;;;;;5080894;28;20458;-70
2021/07/02 12:49:27;;;;;;;24.27;22.47;;;25.60;99.90;;;;;;5082851;28;20557;-72